Hlavní strana
METAR-TAF:

METAR-TAF

Letiště :

San José, Kostarika

zeměpisná šířka: 09-57N, zeměpisná délka: 084-09W, výška: 994 m

Aktuální stav počasí

Zpráva byla vytvořena před 8 hodinami a 30 minutami, v 00:00 UTC
Jihovýchodní vítr 5 kt
Teplota 21°C
Vlhkost vzduchu 78%
Tlak 1016 hPa
Viditelnost 10 km a více
Skoro jasno ve výšce 3500 ft
Oblačno až skoro zataženo ve výšce 10000 ft

METAR: MRPV 150000Z 13005KT 9999 FEW035 BKN100 21/17 A3000 NOSIG

Čas: 02:30 (08:30 UTC)

Předpověď počasí

Zpráva byla vytvořena před 3 hodinami a 30 minutami, v 05:00 UTC
Předpověď platná od 15 v 06 UTC do 16 v 06 UTC
Východojihovýchodní vítr 12 kt
Viditelnost 10 km a více
Skoro jasno ve výšce 3500 ft
Polojasno ve výšce 10000 ft
Dočasný
od 15 v 19 UTC do 15 v 23 UTC
déšť

TAF: MRPV 150500Z 1506/1606 11012KT 9999 FEW035 SCT100 TX27/1518Z TN19/1509Z TEMPO 1519/1523 RA

Stav a předpovědi počasí z více než 4 000 letišť (zprávy METAR a TAF).

Červené a žluté tečky na mapě představují dostupné meteorologické stanice.

Když kurzor umístíte na tečku, zobrazí se název stanice.

Pak kliknutím zobrazíte stav a předpověď počasí.

Chcete-li změnit mapu, kliknutím na zelené tlačítko se znaménkem +mapu přiblížíte, kliknutím na zelené tlačítko se znaménkem – mapu oddálíte a kliknutím na zelené šipky přejdete na sousední mapy.


METAR-TAF: